createdAt,value
2024-05-09T00:00:45.572Z,1011.6
2024-05-09T00:02:11.311Z,1011.7
2024-05-09T00:04:20.860Z,1011.7
2024-05-09T00:05:47.666Z,1011.7
2024-05-09T00:07:11.501Z,1011.7
2024-05-09T00:08:34.540Z,1011.6
2024-05-09T00:09:56.490Z,1011.7
2024-05-09T00:11:18.525Z,1011.6
2024-05-09T00:12:43.516Z,1011.7
2024-05-09T00:14:51.689Z,1011.7
2024-05-09T00:16:15.733Z,1011.2
2024-05-09T00:17:43.435Z,1011.8
2024-05-09T00:19:06.753Z,1011.5
2024-05-09T00:23:56.490Z,1011.6
2024-05-09T00:25:59.479Z,1011.6
2024-05-09T00:27:21.460Z,1011.6
2024-05-09T00:28:43.525Z,1011.6
2024-05-09T00:29:24.596Z,1011.6
2024-05-09T00:31:27.460Z,1011.7
2024-05-09T00:32:08.649Z,1011.6
2024-05-09T00:34:14.514Z,1011.6
2024-05-09T00:35:40.874Z,1011.6
2024-05-09T00:37:08.843Z,1011.6
2024-05-09T00:38:33.724Z,1011.6
2024-05-09T00:39:55.503Z,1011.6
2024-05-09T00:41:19.631Z,1011.5
2024-05-09T00:42:39.470Z,1011.5
2024-05-09T00:44:01.499Z,1011.6
2024-05-09T00:45:23.551Z,1011.6
2024-05-09T00:46:45.493Z,1011.5
2024-05-09T00:48:08.359Z,1011.5
2024-05-09T00:49:29.720Z,1011.6
2024-05-09T00:50:53.524Z,1010.6
2024-05-09T00:52:15.512Z,1011.5
2024-05-09T00:53:37.602Z,1011.5
2024-05-09T00:54:59.512Z,1011.5
2024-05-09T00:56:21.495Z,1011.5
2024-05-09T00:57:43.581Z,1011.5
2024-05-09T00:59:05.510Z,1011.5
2024-05-09T01:00:32.051Z,1011.5
2024-05-09T01:01:50.767Z,1011.5
2024-05-09T01:03:20.175Z,1011.5
2024-05-09T01:04:42.531Z,1011.6
2024-05-09T01:06:05.530Z,1011.5
2024-05-09T01:07:31.104Z,1011.5
2024-05-09T01:08:54.482Z,1011.6
2024-05-09T01:10:24.189Z,1011.6
2024-05-09T01:11:47.830Z,1011.5
2024-05-09T01:13:52.120Z,1011.5
2024-05-09T01:15:14.602Z,1011.5
2024-05-09T01:16:37.573Z,1011.5
2024-05-09T01:18:02.432Z,1011.4
2024-05-09T01:20:10.856Z,1011.4
2024-05-09T01:21:34.111Z,1011.5
2024-05-09T01:22:55.726Z,1011.5
2024-05-09T01:24:21.541Z,1011.5
2024-05-09T01:25:44.789Z,1011.4
2024-05-09T01:29:14.496Z,1011.4
2024-05-09T01:30:39.492Z,1011.4
2024-05-09T01:31:23.031Z,1011.5
2024-05-09T01:32:47.621Z,1011.5
2024-05-09T01:36:11.719Z,1011.5
2024-05-09T01:36:54.511Z,1011.5
2024-05-09T01:37:35.511Z,1011.6
2024-05-09T01:38:57.514Z,1011.5
2024-05-09T01:39:38.760Z,1011.5
2024-05-09T01:40:25.262Z,1011.5
2024-05-09T01:41:44.546Z,1011.5
2024-05-09T01:43:47.533Z,1011.5
2024-05-09T01:45:12.059Z,1011.5
2024-05-09T01:46:35.636Z,1011.5
2024-05-09T01:48:00.565Z,1011.5
2024-05-09T01:50:10.965Z,1011.6
2024-05-09T01:51:37.888Z,1011.6
2024-05-09T01:53:02.758Z,1011.5
2024-05-09T01:54:25.806Z,1010.7
2024-05-09T01:55:47.584Z,1011.5
2024-05-09T01:57:09.519Z,1011.6
2024-05-09T01:58:31.533Z,1011.6
2024-05-09T01:59:53.553Z,1011.6
2024-05-09T02:01:15.562Z,1011.6
2024-05-09T02:02:37.560Z,1011.6
2024-05-09T02:04:03.371Z,1011.6
2024-05-09T02:05:28.476Z,1011.6
2024-05-09T02:06:50.546Z,1011.6
2024-05-09T02:08:15.695Z,1011.7
2024-05-09T02:09:37.569Z,1011.6
2024-05-09T02:10:23.237Z,1011.7
2024-05-09T02:11:41.621Z,1011.7
2024-05-09T02:13:49.033Z,1011.6
2024-05-09T02:15:15.534Z,1011.6
2024-05-09T02:16:42.723Z,1011.6
2024-05-09T02:18:04.996Z,1011.6
2024-05-09T02:19:26.597Z,1011.6
2024-05-09T02:20:50.580Z,1011.7
2024-05-09T02:21:31.516Z,1011.6
2024-05-09T02:22:17.554Z,1011.7
2024-05-09T02:24:30.548Z,1011.7
2024-05-09T02:25:59.931Z,1011.7
2024-05-09T02:27:29.757Z,1011.7
2024-05-09T02:28:56.621Z,1011.7
2024-05-09T02:30:29.447Z,1011.3
2024-05-09T02:31:49.988Z,1011.6
2024-05-09T02:33:15.910Z,1011.6
2024-05-09T02:34:40.596Z,1011.6
2024-05-09T02:36:06.560Z,1011.6
2024-05-09T02:37:31.615Z,1011.7
2024-05-09T02:38:56.743Z,1011.6
2024-05-09T02:40:28.761Z,1011.6
2024-05-09T02:41:47.543Z,1011.6
2024-05-09T02:43:10.335Z,1011.6
2024-05-09T02:44:34.806Z,1010.8
2024-05-09T02:45:15.791Z,1011.4
2024-05-09T02:45:56.555Z,1011.4
2024-05-09T02:47:59.743Z,1011.6
2024-05-09T02:49:24.877Z,1011.7
2024-05-09T02:50:06.167Z,1011.7
2024-05-09T02:51:28.568Z,1011.7
2024-05-09T02:52:50.846Z,1011.7
2024-05-09T02:54:12.553Z,1011.6
2024-05-09T02:55:37.268Z,1011.6
2024-05-09T02:57:01.536Z,1011.6
2024-05-09T02:58:29.471Z,1011.6
2024-05-09T02:59:54.814Z,1011.6
2024-05-09T03:01:17.621Z,1011.6
2024-05-09T03:02:02.515Z,1011.6
2024-05-09T03:03:27.136Z,1011.6
2024-05-09T03:05:34.814Z,1011.6
2024-05-09T03:06:57.565Z,1011.7
2024-05-09T03:08:20.571Z,1011.7
2024-05-09T03:09:43.595Z,1011.7
2024-05-09T03:11:05.748Z,1011.7
2024-05-09T03:12:27.603Z,1011.7
2024-05-09T03:14:30.993Z,1011.7
2024-05-09T03:17:59.851Z,1011.7
2024-05-09T03:19:22.959Z,1011.7
2024-05-09T03:20:46.579Z,1011.7
2024-05-09T03:22:56.917Z,1011.7
2024-05-09T03:24:19.600Z,1011.8
2024-05-09T03:25:43.736Z,1011.8
2024-05-09T03:27:14.429Z,1011.7
2024-05-09T03:28:44.845Z,1011.7
2024-05-09T03:30:12.610Z,1011.8
2024-05-09T03:31:36.850Z,1011.8
2024-05-09T03:32:59.701Z,1011.8
2024-05-09T03:34:24.572Z,1011.8
2024-05-09T03:35:52.357Z,1011.9
2024-05-09T03:37:17.656Z,1011.9
2024-05-09T03:38:39.631Z,1011.9
2024-05-09T03:40:49.201Z,1011.9
2024-05-09T03:42:14.829Z,1011.8
2024-05-09T03:43:39.426Z,1011.8
2024-05-09T03:45:02.567Z,1011.8
2024-05-09T03:46:24.687Z,1011.7
2024-05-09T03:47:46.957Z,1011.8
2024-05-09T03:49:17.343Z,1011.8
2024-05-09T03:50:41.689Z,1011.7
2024-05-09T03:52:45.663Z,1011.7
2024-05-09T03:54:50.645Z,1011.7
2024-05-09T03:56:15.686Z,1011.7
2024-05-09T03:57:37.796Z,1011.7
2024-05-09T03:59:01.854Z,1011.7
2024-05-09T04:00:26.277Z,1011.7
2024-05-09T04:01:49.307Z,1011.7
2024-05-09T04:03:57.846Z,1011.7
2024-05-09T04:05:23.644Z,1011.7
2024-05-09T04:06:46.586Z,1011.7
2024-05-09T04:08:13.642Z,1011.8
2024-05-09T04:10:27.633Z,1011.9
2024-05-09T04:11:46.077Z,1011.9
2024-05-09T04:13:08.849Z,1011.9
2024-05-09T04:14:31.662Z,1011.9
2024-05-09T04:15:54.592Z,1011.9
2024-05-09T04:17:17.050Z,1011.9
2024-05-09T04:18:40.822Z,1011.9
2024-05-09T04:20:03.616Z,1011.9
2024-05-09T04:21:29.611Z,1011.7
2024-05-09T04:22:54.913Z,1011.8
2024-05-09T04:24:21.849Z,1011.8
2024-05-09T04:25:45.989Z,1011.4
2024-05-09T04:27:09.578Z,1011.8
2024-05-09T04:28:31.601Z,1011.7
2024-05-09T04:29:59.153Z,1011.7
2024-05-09T04:31:20.595Z,1011.7
2024-05-09T04:34:49.869Z,1010.8
2024-05-09T04:36:12.632Z,1011.6
2024-05-09T04:38:20.891Z,1011.7
2024-05-09T04:39:48.894Z,1011.7
2024-05-09T04:41:17.776Z,1011.7
2024-05-09T04:42:45.625Z,1011.7
2024-05-09T04:44:13.209Z,1011.7
2024-05-09T04:45:37.997Z,1011.9
2024-05-09T04:47:00.657Z,1011.8
2024-05-09T04:48:26.969Z,1011.7
2024-05-09T04:49:51.582Z,1011.7
2024-05-09T04:51:16.231Z,1011.8
2024-05-09T04:52:37.599Z,1011.8
2024-05-09T04:54:00.590Z,1011.8
2024-05-09T04:55:22.614Z,1011.8
2024-05-09T04:56:47.615Z,1011.8
2024-05-09T04:58:15.584Z,1011.7
2024-05-09T04:59:37.619Z,1011.8
2024-05-09T05:00:59.681Z,1011.8
2024-05-09T05:02:21.639Z,1011.8
2024-05-09T05:03:43.774Z,1011.7
2024-05-09T05:05:05.669Z,1011.8
2024-05-09T05:06:27.640Z,1011.7
2024-05-09T05:07:49.860Z,1011.7
2024-05-09T05:09:13.720Z,1011.7
2024-05-09T05:10:37.069Z,1011.7
2024-05-09T05:12:05.135Z,1011.7
2024-05-09T05:13:26.660Z,1011.7
2024-05-09T05:14:48.639Z,1011.6
2024-05-09T05:16:11.643Z,1011.6
2024-05-09T05:18:20.710Z,1011.6
2024-05-09T05:19:45.789Z,1011.6
2024-05-09T05:21:53.832Z,1011.7
2024-05-09T05:23:16.974Z,1011.6
2024-05-09T05:24:39.627Z,1011.7
2024-05-09T05:26:01.696Z,1011.7
2024-05-09T05:27:33.023Z,1011.7
2024-05-09T05:29:03.696Z,1011.6
2024-05-09T05:30:34.265Z,1011.7
2024-05-09T05:31:54.944Z,1011.6
2024-05-09T05:33:19.966Z,1011.6
2024-05-09T05:34:45.420Z,1011.6
2024-05-09T05:36:11.604Z,1011.6
2024-05-09T05:37:39.633Z,1011.6
2024-05-09T05:39:05.355Z,1011.1
2024-05-09T05:41:15.647Z,1011.6
2024-05-09T05:42:37.639Z,1011.7
2024-05-09T05:44:02.963Z,1011.7
2024-05-09T05:45:28.147Z,1011.7
2024-05-09T05:46:49.950Z,1011.8
2024-05-09T05:48:15.868Z,1011.7
2024-05-09T05:49:38.987Z,1011.7
2024-05-09T05:51:46.638Z,1011.8
2024-05-09T05:53:09.100Z,1011.8
2024-05-09T05:54:30.903Z,1011.8
2024-05-09T05:55:54.693Z,1011.8
2024-05-09T05:57:57.851Z,1011.8
2024-05-09T05:59:21.723Z,1011.2
2024-05-09T06:01:27.512Z,1011.7
2024-05-09T06:02:53.692Z,1011.7
2024-05-09T06:04:16.965Z,1011.7
2024-05-09T06:05:39.031Z,1011.7
2024-05-09T06:07:04.863Z,1011.7
2024-05-09T06:08:30.513Z,1011.7
2024-05-09T06:10:43.711Z,1011.7
2024-05-09T06:11:25.776Z,1011.8
2024-05-09T06:12:10.724Z,1011.8
2024-05-09T06:13:37.672Z,1011.8
2024-05-09T06:15:00.674Z,1011.8
2024-05-09T06:16:24.943Z,1011.9
2024-05-09T06:17:47.768Z,1011.8
2024-05-09T06:19:14.078Z,1011.8
2024-05-09T06:20:39.556Z,1011.8
2024-05-09T06:22:04.791Z,1011.8
2024-05-09T06:24:13.950Z,1011.9
2024-05-09T06:25:37.784Z,1011.9
2024-05-09T06:27:03.690Z,1011.9
2024-05-09T06:28:25.741Z,1011.9
2024-05-09T06:29:49.648Z,1011.9
2024-05-09T06:31:12.867Z,1011.9
2024-05-09T06:32:34.765Z,1011.9
2024-05-09T06:33:57.063Z,1011.9
2024-05-09T06:35:19.675Z,1011.8
2024-05-09T06:36:44.653Z,1011.8
2024-05-09T06:38:16.872Z,1011.9
2024-05-09T06:39:45.682Z,1011.8
2024-05-09T06:41:09.898Z,1011.8
2024-05-09T06:42:36.269Z,1011.9
2024-05-09T06:44:03.755Z,1011.9
2024-05-09T06:45:26.727Z,1011.9
2024-05-09T06:46:48.766Z,1011.9
2024-05-09T06:48:11.147Z,1011.9
2024-05-09T06:49:35.742Z,1011.9
2024-05-09T06:50:57.930Z,1011.9
2024-05-09T06:53:02.849Z,1011.9
2024-05-09T06:55:05.748Z,1011.9
2024-05-09T06:56:29.780Z,1011.9
2024-05-09T06:57:55.837Z,1011.9
2024-05-09T06:59:21.965Z,1011.9
2024-05-09T07:00:45.836Z,1011.8
2024-05-09T07:02:07.765Z,1011.9
2024-05-09T07:03:33.937Z,1011.9
2024-05-09T07:05:40.794Z,1011.9
2024-05-09T07:07:05.689Z,1011.8
2024-05-09T07:08:32.913Z,1011.9
2024-05-09T07:09:54.924Z,1011.9
2024-05-09T07:11:16.986Z,1011.8
2024-05-09T07:13:22.713Z,1011.9
2024-05-09T07:14:45.752Z,1011.9
2024-05-09T07:16:51.400Z,1011.8
2024-05-09T07:18:14.114Z,1011.9
2024-05-09T07:19:36.835Z,1011.9
2024-05-09T07:21:02.725Z,1011.8
2024-05-09T07:23:09.808Z,1011.8
2024-05-09T07:24:32.721Z,1011.8
2024-05-09T07:25:55.737Z,1011.9
2024-05-09T07:27:21.364Z,1011.8
2024-05-09T07:28:44.711Z,1011.8
2024-05-09T07:30:07.393Z,1011.8
2024-05-09T07:31:28.899Z,1011.9
2024-05-09T07:32:51.940Z,1011.9
2024-05-09T07:34:14.862Z,1011.6
2024-05-09T07:35:43.219Z,1011.8
2024-05-09T07:37:05.781Z,1011.8
2024-05-09T07:38:31.288Z,1011.8
2024-05-09T07:39:55.809Z,1011.6
2024-05-09T07:41:20.255Z,1011.8
2024-05-09T07:42:45.813Z,1011.8
2024-05-09T07:45:06.354Z,1011.8
2024-05-09T07:46:51.586Z,1011.8
2024-05-09T07:48:28.830Z,1011.8
2024-05-09T07:50:33.234Z,1011.8
2024-05-09T07:53:07.504Z,1011.8
2024-05-09T07:53:42.233Z,1011.7
2024-05-09T07:55:03.086Z,1011.8
2024-05-09T07:56:27.174Z,1011.7
2024-05-09T07:57:54.039Z,1011.7
2024-05-09T07:59:22.719Z,1011.7
2024-05-09T08:00:49.023Z,1011.7
2024-05-09T08:02:18.716Z,1011.7
2024-05-09T08:03:42.852Z,1011.7
2024-05-09T08:05:11.710Z,1011.7
2024-05-09T08:06:34.912Z,1011.7
2024-05-09T08:07:56.709Z,1011.7
2024-05-09T08:09:21.198Z,1011.7
2024-05-09T08:10:47.777Z,1011.7
2024-05-09T08:12:50.957Z,1011.7
2024-05-09T08:14:16.761Z,1011.7
2024-05-09T08:15:44.383Z,1011.7
2024-05-09T08:18:38.836Z,1011.7
2024-05-09T08:20:04.356Z,1011.7
2024-05-09T08:21:26.942Z,1011.7
2024-05-09T08:22:09.090Z,1011.7
2024-05-09T08:22:49.729Z,1011.7
2024-05-09T08:24:13.750Z,1011.7
2024-05-09T08:24:59.762Z,1011.3
2024-05-09T08:26:25.769Z,1011.7
2024-05-09T08:27:51.789Z,1011.7
2024-05-09T08:29:13.751Z,1011.7
2024-05-09T08:30:37.853Z,1011.7
2024-05-09T08:32:01.000Z,1011.7
2024-05-09T08:34:10.885Z,1011.5
2024-05-09T08:35:33.980Z,1011.7
2024-05-09T08:36:56.350Z,1011.6
2024-05-09T08:38:22.018Z,1011.6
2024-05-09T08:39:43.744Z,1011.7
2024-05-09T08:43:13.174Z,1011.6
2024-05-09T08:45:20.751Z,1011.6
2024-05-09T08:46:42.768Z,1011.7
2024-05-09T08:48:08.190Z,1011.6
2024-05-09T08:49:32.286Z,1011.6
2024-05-09T08:50:57.771Z,1011.6
2024-05-09T08:52:22.729Z,1011.6
2024-05-09T08:54:27.007Z,1011.7
2024-05-09T08:55:50.954Z,1011.7
2024-05-09T08:57:14.786Z,1011.7
2024-05-09T08:58:36.808Z,1011.7
2024-05-09T09:00:39.886Z,1011.7
2024-05-09T09:02:01.871Z,1011.6
2024-05-09T09:05:28.113Z,1011.6
2024-05-09T09:07:34.843Z,1011.7
2024-05-09T09:08:57.823Z,1011.7
2024-05-09T09:10:28.885Z,1011.7
2024-05-09T09:11:52.071Z,1011.7
2024-05-09T09:13:15.040Z,1011.7
2024-05-09T09:14:36.981Z,1011.7
2024-05-09T09:15:59.338Z,1011.7
2024-05-09T09:17:25.898Z,1011.8
2024-05-09T09:18:48.167Z,1011.7
2024-05-09T09:20:14.183Z,1011.7
2024-05-09T09:21:33.836Z,1011.7
2024-05-09T09:22:58.062Z,1011
2024-05-09T09:24:22.834Z,1011.7
2024-05-09T09:25:47.300Z,1011.7
2024-05-09T09:27:08.794Z,1011.7
2024-05-09T09:28:30.763Z,1011.7
2024-05-09T09:30:38.290Z,1011.8
2024-05-09T09:32:43.810Z,1011.7
2024-05-09T09:34:10.048Z,1011.7
2024-05-09T09:35:35.592Z,1011.7
2024-05-09T09:36:57.796Z,1011.7
2024-05-09T09:38:19.977Z,1011.7
2024-05-09T09:39:42.807Z,1011.7
2024-05-09T09:41:05.942Z,1011.7
2024-05-09T09:42:28.023Z,1011.6
2024-05-09T09:43:51.836Z,1011.7
2024-05-09T09:45:16.799Z,1011.6
2024-05-09T09:46:41.042Z,1011.6
2024-05-09T09:48:03.087Z,1011.7
2024-05-09T09:49:24.852Z,1011.7
2024-05-09T09:50:47.802Z,1011.7
2024-05-09T09:51:28.827Z,1011.7
2024-05-09T09:52:11.807Z,1011.7
2024-05-09T09:52:55.837Z,1011.7
2024-05-09T09:53:36.783Z,1011.7
2024-05-09T09:54:20.638Z,1011.7
2024-05-09T09:55:43.800Z,1011.7
2024-05-09T09:57:53.555Z,1011.7
2024-05-09T09:59:15.828Z,1011.7
2024-05-09T10:00:39.150Z,1011.6
2024-05-09T10:02:04.275Z,1011.6
2024-05-09T10:03:27.164Z,1011.6
2024-05-09T10:04:50.143Z,1011.6
2024-05-09T10:06:11.798Z,1011.6
2024-05-09T10:07:35.802Z,1011.6
2024-05-09T10:08:58.875Z,1011.6
2024-05-09T10:10:29.822Z,1011.6
2024-05-09T10:11:49.413Z,1011.6
2024-05-09T10:13:12.131Z,1011.5
2024-05-09T10:14:38.946Z,1011.5
2024-05-09T10:16:03.848Z,1011.5
2024-05-09T10:17:30.854Z,1011.5
2024-05-09T10:18:55.043Z,1011
2024-05-09T10:20:21.752Z,1011.5
2024-05-09T10:21:45.709Z,1011.5
2024-05-09T10:23:55.822Z,1011
2024-05-09T10:25:24.356Z,1011.5
2024-05-09T10:26:49.880Z,1011.5
2024-05-09T10:28:17.062Z,1011.5
2024-05-09T10:29:43.825Z,1011.5
2024-05-09T10:31:07.903Z,1011.5
2024-05-09T10:32:42.070Z,1011.5
2024-05-09T10:34:09.352Z,1011.5
2024-05-09T10:35:37.322Z,1011.5
2024-05-09T10:37:05.202Z,1011.5
2024-05-09T10:38:31.815Z,1011.4
2024-05-09T10:39:55.803Z,1011.4
2024-05-09T10:41:21.851Z,1011.4
2024-05-09T10:42:45.926Z,1011.3
2024-05-09T10:44:13.073Z,1011.4
2024-05-09T10:45:39.978Z,1011.4
2024-05-09T10:47:03.933Z,1011.4
2024-05-09T10:48:29.190Z,1011.4
2024-05-09T10:49:54.072Z,1011.3
2024-05-09T10:51:15.883Z,1011.3
2024-05-09T10:52:45.375Z,1011.3
2024-05-09T10:54:10.038Z,1011.3
2024-05-09T10:56:17.098Z,1011.3
2024-05-09T10:57:41.903Z,1011.3
2024-05-09T10:59:05.863Z,1011.3
2024-05-09T11:00:30.767Z,1011.3
2024-05-09T11:01:51.874Z,1011.3
2024-05-09T11:03:21.846Z,1011.2
2024-05-09T11:05:25.964Z,1011.2
2024-05-09T11:06:57.078Z,1011.2
2024-05-09T11:08:21.037Z,1011.2
2024-05-09T11:09:44.841Z,1011.2
2024-05-09T11:11:08.583Z,1011.1
2024-05-09T11:12:36.077Z,1011.2
2024-05-09T11:14:05.239Z,1011.2
2024-05-09T11:15:35.890Z,1011.2
2024-05-09T11:16:57.833Z,1011.2
2024-05-09T11:18:24.817Z,1011.2
2024-05-09T11:20:30.224Z,1011.1
2024-05-09T11:21:55.886Z,1011.2
2024-05-09T11:23:21.890Z,1011.2
2024-05-09T11:24:46.826Z,1011.1
2024-05-09T11:26:15.140Z,1011.1
2024-05-09T11:27:48.815Z,1011.1
2024-05-09T11:29:17.885Z,1011
2024-05-09T11:30:40.974Z,1011
2024-05-09T11:32:04.944Z,1011.1
2024-05-09T11:33:29.105Z,1011.1
2024-05-09T11:34:59.838Z,1011
2024-05-09T11:36:21.850Z,1011
2024-05-09T11:37:44.026Z,1011
2024-05-09T11:39:05.990Z,1011
2024-05-09T11:40:28.636Z,1011
2024-05-09T11:41:49.851Z,1010.9
2024-05-09T11:43:11.970Z,1010.9
2024-05-09T11:44:34.959Z,1010.9
2024-05-09T11:45:56.891Z,1010.9
2024-05-09T11:47:18.890Z,1010.8
2024-05-09T11:48:41.033Z,1010.8
2024-05-09T11:50:04.293Z,1010.8
2024-05-09T11:51:24.857Z,1010.8
2024-05-09T11:52:46.877Z,1010.9
2024-05-09T11:54:08.878Z,1010.8
2024-05-09T11:55:31.045Z,1010.8
2024-05-09T11:57:35.918Z,1010.8
2024-05-09T12:00:29.110Z,1010.9
2024-05-09T12:02:28.060Z,1010.8
2024-05-09T12:03:52.136Z,1010.8
2024-05-09T12:05:15.038Z,1010.8
2024-05-09T12:07:17.923Z,1010.7
2024-05-09T12:08:43.874Z,1010.8
2024-05-09T12:10:13.909Z,1010.7
2024-05-09T12:11:37.001Z,1010.8
2024-05-09T12:13:05.883Z,1010.8
2024-05-09T12:14:27.092Z,1010.7
2024-05-09T12:15:49.241Z,1010.8
2024-05-09T12:17:10.885Z,1010.7
2024-05-09T12:18:34.212Z,1010.7
2024-05-09T12:19:57.073Z,1010.7
2024-05-09T12:21:22.171Z,1010.7
2024-05-09T12:22:50.857Z,1010.7
2024-05-09T12:24:16.047Z,1010.7
2024-05-09T12:25:44.495Z,1010.7
2024-05-09T12:27:10.506Z,1010.7
2024-05-09T12:28:35.535Z,1010.6
2024-05-09T12:30:01.936Z,1010.7
2024-05-09T12:31:26.173Z,1010.1
2024-05-09T12:32:49.177Z,1010.5
2024-05-09T12:34:11.179Z,1010.6
2024-05-09T12:35:35.942Z,1010.6
2024-05-09T12:37:41.884Z,1010.4
2024-05-09T12:39:03.918Z,1010.6
2024-05-09T12:40:34.345Z,1010.6
2024-05-09T12:42:49.952Z,1010.7
2024-05-09T12:43:33.931Z,1010.6
2024-05-09T12:45:03.840Z,1010.6
2024-05-09T12:46:28.999Z,1010.6
2024-05-09T12:47:53.666Z,1010.4
2024-05-09T12:49:18.681Z,1010.5
2024-05-09T12:50:38.064Z,1010.5
2024-05-09T12:51:59.917Z,1010.1
2024-05-09T12:53:24.892Z,1010.5
2024-05-09T12:54:05.893Z,1010.5
2024-05-09T12:55:28.398Z,1010.4
2024-05-09T12:56:09.996Z,1010.4
2024-05-09T12:57:32.202Z,1010.4
2024-05-09T12:58:59.722Z,1010.4
2024-05-09T13:00:27.880Z,1010.4
2024-05-09T13:01:50.350Z,1010.4
2024-05-09T13:03:18.470Z,1010.4
2024-05-09T13:04:41.984Z,1010.5
2024-05-09T13:06:47.786Z,1010.3
2024-05-09T13:08:13.887Z,1010.4
2024-05-09T13:09:38.976Z,1010.3
2024-05-09T13:11:06.457Z,1010.2
2024-05-09T13:12:32.935Z,1010.2
2024-05-09T13:13:55.918Z,1010.2
2024-05-09T13:15:21.120Z,1010.2
2024-05-09T13:16:45.015Z,1009.3
2024-05-09T13:18:53.960Z,1010.1
2024-05-09T13:20:22.562Z,1010.2
2024-05-09T13:21:43.505Z,1010.2
2024-05-09T13:23:08.528Z,1010.1
2024-05-09T13:24:29.978Z,1010.1
2024-05-09T13:26:01.197Z,1010.2
2024-05-09T13:27:24.354Z,1010.2
2024-05-09T13:29:28.964Z,1010.1
2024-05-09T13:31:05.632Z,1010.1
2024-05-09T13:32:32.058Z,1010
2024-05-09T13:33:22.993Z,1010
2024-05-09T13:34:04.241Z,1010
2024-05-09T13:34:47.636Z,1010.1
2024-05-09T13:35:28.922Z,1010.1
2024-05-09T13:36:54.041Z,1010
2024-05-09T13:38:20.450Z,1010
2024-05-09T13:40:30.091Z,1010
2024-05-09T13:41:51.925Z,1010.1
2024-05-09T13:43:16.996Z,1010.1
2024-05-09T13:44:41.931Z,1010.1
2024-05-09T13:46:03.962Z,1010.1
2024-05-09T13:47:27.994Z,1010
2024-05-09T13:48:55.206Z,1010
2024-05-09T13:50:59.944Z,1010
2024-05-09T13:52:24.568Z,1010
2024-05-09T13:53:47.930Z,1010
2024-05-09T13:55:13.015Z,1009.9
2024-05-09T13:57:21.656Z,1010
2024-05-09T13:58:47.941Z,1009.9
2024-05-09T14:00:22.853Z,1009.9
2024-05-09T14:01:42.153Z,1009.9
2024-05-09T14:03:05.107Z,1009.9
2024-05-09T14:04:29.645Z,1009.9
2024-05-09T14:05:55.128Z,1009.9
2024-05-09T14:07:19.651Z,1009.9
2024-05-09T14:08:43.966Z,1009.9
2024-05-09T14:10:16.017Z,1009.8
2024-05-09T14:12:15.971Z,1009.8
2024-05-09T14:13:44.977Z,1009.8
2024-05-09T14:15:08.223Z,1009.8
2024-05-09T14:16:34.430Z,1009.8
2024-05-09T14:17:59.014Z,1009.8
2024-05-09T14:19:22.978Z,1009.8
2024-05-09T14:20:53.015Z,1009.8
2024-05-09T14:23:00.336Z,1009.8
2024-05-09T14:24:22.971Z,1009.8
2024-05-09T14:25:50.174Z,1009.8
2024-05-09T14:27:09.970Z,1009.8
2024-05-09T14:28:33.199Z,1009.7
2024-05-09T14:29:54.957Z,1009.7
2024-05-09T14:31:18.378Z,1009.7
2024-05-09T14:32:41.326Z,1009.7
2024-05-09T14:34:04.215Z,1009.6
2024-05-09T14:35:26.969Z,1009.7
2024-05-09T14:36:50.007Z,1009.7
2024-05-09T14:38:16.022Z,1009.7
2024-05-09T14:39:37.964Z,1009.7
2024-05-09T14:41:41.959Z,1009.7
2024-05-09T14:43:06.083Z,1009.6
2024-05-09T14:45:14.954Z,1009.6
2024-05-09T14:46:36.957Z,1009.6
2024-05-09T14:48:00.161Z,1009.5
2024-05-09T14:49:22.027Z,1009.5
2024-05-09T14:50:46.977Z,1009.6
2024-05-09T14:52:09.302Z,1009.5
2024-05-09T14:53:34.987Z,1009.4
2024-05-09T14:55:00.088Z,1009.5
2024-05-09T14:56:18.990Z,1009.4
2024-05-09T14:57:44.993Z,1009.4
2024-05-09T14:59:10.999Z,1009.4
2024-05-09T15:00:37.220Z,1009.4
2024-05-09T15:02:02.168Z,1009.4
2024-05-09T15:03:27.095Z,1009.5
2024-05-09T15:04:52.012Z,1009.4
2024-05-09T15:06:19.481Z,1009.4
2024-05-09T15:07:41.971Z,1009.4
2024-05-09T15:11:09.350Z,1009.3
2024-05-09T15:12:31.010Z,1009.4
2024-05-09T15:14:40.007Z,1009.4
2024-05-09T15:16:07.316Z,1009.4
2024-05-09T15:17:31.525Z,1009.4
2024-05-09T15:18:57.148Z,1009.4
2024-05-09T15:20:26.746Z,1009.4
2024-05-09T15:21:44.064Z,1009.3
2024-05-09T15:23:09.031Z,1009.3
2024-05-09T15:24:32.055Z,1009.3
2024-05-09T15:25:15.428Z,1009.4
2024-05-09T15:26:44.509Z,1009.2
2024-05-09T15:28:09.099Z,1009.2
2024-05-09T15:29:35.033Z,1009.2
2024-05-09T15:30:57.091Z,1009.3
2024-05-09T15:32:19.034Z,1009.2
2024-05-09T15:33:48.033Z,1009.1
2024-05-09T15:35:56.245Z,1009.1
2024-05-09T15:37:24.918Z,1009.1
2024-05-09T15:38:49.007Z,1009.1
2024-05-09T15:40:15.078Z,1009.1
2024-05-09T15:41:35.059Z,1009.1
2024-05-09T15:42:57.077Z,1009
2024-05-09T15:44:23.991Z,1009
2024-05-09T15:46:35.987Z,1009.1
2024-05-09T15:48:05.009Z,1009
2024-05-09T15:49:29.727Z,1009
2024-05-09T15:50:53.685Z,1009
2024-05-09T15:52:17.047Z,1009
2024-05-09T15:53:39.011Z,1008.9
2024-05-09T15:55:01.002Z,1009
2024-05-09T15:56:24.045Z,1008.9
2024-05-09T15:57:46.083Z,1009
2024-05-09T15:59:10.024Z,1008.8
2024-05-09T16:00:36.967Z,1008.9
2024-05-09T16:01:56.091Z,1008.9
2024-05-09T16:03:18.057Z,1009
2024-05-09T16:04:40.052Z,1008.7
2024-05-09T16:06:02.047Z,1008.9
2024-05-09T16:07:27.941Z,1009
2024-05-09T16:08:51.054Z,1009
2024-05-09T16:10:19.896Z,1009
2024-05-09T16:11:42.086Z,1009
2024-05-09T16:13:07.042Z,1008.9
2024-05-09T16:14:34.034Z,1008.9
2024-05-09T16:15:56.393Z,1008.9
2024-05-09T16:17:18.065Z,1008.9
2024-05-09T16:18:43.036Z,1008.8
2024-05-09T16:20:09.272Z,1008.8
2024-05-09T16:22:14.132Z,1008.9
2024-05-09T16:23:40.461Z,1008.8
2024-05-09T16:24:24.944Z,1008.8
2024-05-09T16:25:06.117Z,1008.8
2024-05-09T16:26:29.038Z,1008.8
2024-05-09T16:27:10.108Z,1008.8
2024-05-09T16:28:32.318Z,1008.8
2024-05-09T16:29:56.019Z,1008.9
2024-05-09T16:31:18.099Z,1008.8
2024-05-09T16:32:43.126Z,1008.8
2024-05-09T16:34:51.208Z,1008.8
2024-05-09T16:36:17.061Z,1008.8
2024-05-09T16:37:42.371Z,1008.8
2024-05-09T16:39:07.046Z,1008.8
2024-05-09T16:40:36.944Z,1008.8
2024-05-09T16:41:57.040Z,1008.8
2024-05-09T16:45:22.052Z,1008.8
2024-05-09T16:46:47.129Z,1008.8
2024-05-09T16:48:57.061Z,1008.8
2024-05-09T16:50:26.288Z,1008.8
2024-05-09T16:51:49.139Z,1008.8
2024-05-09T16:53:19.060Z,1008.8
2024-05-09T16:54:45.292Z,1008.8
2024-05-09T16:56:11.044Z,1008.8
2024-05-09T16:57:36.094Z,1008.1
2024-05-09T16:59:01.876Z,1008.7
2024-05-09T17:00:34.742Z,1008.8
2024-05-09T17:01:52.304Z,1008.8
2024-05-09T17:03:18.200Z,1008.8
2024-05-09T17:04:43.227Z,1008.8
2024-05-09T17:06:07.074Z,1008.8
2024-05-09T17:07:33.048Z,1008.8
2024-05-09T17:09:43.982Z,1008.8
2024-05-09T17:11:12.322Z,1008.8
2024-05-09T17:12:39.184Z,1008.8
2024-05-09T17:14:05.140Z,1008.8
2024-05-09T17:15:31.232Z,1008.8
2024-05-09T17:16:53.168Z,1008.8
2024-05-09T17:18:16.237Z,1008.8
2024-05-09T17:19:42.812Z,1008.9
2024-05-09T17:21:06.350Z,1008.8
2024-05-09T17:23:12.142Z,1008.4
2024-05-09T17:24:39.286Z,1008.8
2024-05-09T17:26:03.106Z,1008.8
2024-05-09T17:27:26.077Z,1008.8
2024-05-09T17:28:53.325Z,1008.8
2024-05-09T17:30:24.412Z,1008.8
2024-05-09T17:32:24.922Z,1008.8
2024-05-09T17:33:50.115Z,1008.8
2024-05-09T17:35:16.099Z,1008.8
2024-05-09T17:36:39.496Z,1008.8
2024-05-09T17:38:02.092Z,1008.8
2024-05-09T17:39:25.072Z,1008.8
2024-05-09T17:40:51.129Z,1008.7
2024-05-09T17:42:13.123Z,1008.8
2024-05-09T17:43:37.118Z,1008.4
2024-05-09T17:44:59.089Z,1008.7
2024-05-09T17:46:21.106Z,1008.8
2024-05-09T17:47:43.161Z,1008.8
2024-05-09T17:49:05.190Z,1008.8
2024-05-09T17:51:08.086Z,1008.7
2024-05-09T17:53:11.363Z,1009
2024-05-09T17:54:34.099Z,1008.8
2024-05-09T17:55:56.315Z,1008.7
2024-05-09T17:57:18.338Z,1008.7
2024-05-09T17:59:23.082Z,1008.8
2024-05-09T18:00:45.312Z,1008.8
2024-05-09T18:04:16.020Z,1008.8
2024-05-09T18:05:39.548Z,1008.7
2024-05-09T18:07:01.348Z,1008.8
2024-05-09T18:08:25.491Z,1008.7
2024-05-09T18:09:49.226Z,1008.8
2024-05-09T18:10:33.637Z,1008.8
2024-05-09T18:11:57.216Z,1008.9
2024-05-09T18:14:00.136Z,1008.8
2024-05-09T18:15:22.101Z,1008.8
2024-05-09T18:16:44.338Z,1008.8
2024-05-09T18:18:09.440Z,1008.8
2024-05-09T18:19:35.296Z,1008.8
2024-05-09T18:21:47.437Z,1008.8
2024-05-09T18:23:11.218Z,1008.8
2024-05-09T18:24:36.665Z,1008.8
2024-05-09T18:26:05.037Z,1008.8
2024-05-09T18:27:29.109Z,1008.8
2024-05-09T18:28:52.109Z,1008.8
2024-05-09T18:31:39.409Z,1008.9
2024-05-09T18:33:07.214Z,1008.9
2024-05-09T18:35:12.800Z,1008.9